Terminal Aerodrome Forecast
Issued by NWS Wilmington, OH

Current Version | Previous Version | Graphics & Text | Print | Product List | Glossary On
Versions: 1 2 3 4 5 6 7 8 9 10 11 12 13 14 15 16 17 18 19 20 21 22 23 24 25 26 27 28 29
000
FTUS41 KILN 272300
TAFCVG
TAF
KCVG 272320Z 2800/0106 04003KT P6SM FEW050
     FM280600 08004KT P6SM BKN100
     FM281600 09008KT P6SM BKN060
     FM010400 11008KT 5SM -SN BKN022=

USA.gov is the U.S. government's official web portal to all federal, state and local government web resources and services.